Latest Weather Observations for Moss Vale

IDN60801

Issued at 9:02 am EDT Saturday 6 February 2016 (issued every 30 minutes, with the page automatically refreshed every 10 minutes)

About weather observations | Map of weather stations | Latest weather observations for NSW | Other Formats
Station Details ID: 068239 Name: MOSS VALE AWS Lat: -34.53 Lon: 150.42 Height: 678.4 m
Data from the previous 72 hours. | See also: Recent months at Moss Vale
Date/Time
EDT
Temp
°C
App
Temp
°C
Dew
Point
Rel
Hum
%
Delta-T
°C
Wind Press
QNH
hPa
Press
MSL
hPa
Rain
since 9 am
mm
Dir
 
Spd
km/h
Gust
km/h
Spd
kts
Gust
kts
06/08:30am 15.2 12.5 13.6 90 0.9 SSE 20 26 11 14 1020.9 1018.1 0.2
06/08:00am 15.2 12.9 13.1 87 1.2 SE 17 24 9 13 1020.6 1017.8 0.2
06/07:30am 14.4 12.5 13.1 92 0.7 SE 15 20 8 11 1020.2 1017.3 0.2
06/07:00am 13.5 12.4 13.0 97 0.3 SE 11 15 6 8 1020.0 1017.1 0.2
06/06:30am 13.3 11.7 12.8 97 0.3 SE 13 17 7 9 1019.8 1016.9 0.2
06/06:00am 13.9 12.0 13.1 95 0.5 SSE 15 20 8 11 1019.6 1016.7 0.2
06/05:30am 13.8 12.2 12.9 94 0.5 SE 13 19 7 10 1019.7 1016.8 0.2
06/05:00am 13.8 12.2 12.7 93 0.6 SSE 13 17 7 9 1019.7 1016.8 0.2
06/04:30am 13.8 12.1 12.4 91 0.8 SE 13 17 7 9 1019.7 1016.8 0.2
06/04:00am 13.8 12.6 12.9 94 0.5 SE 11 15 6 8 1019.7 1016.8 0.2
06/03:30am 13.7 11.4 12.9 95 0.5 SE 17 20 9 11 1019.8 1016.9 0.2
06/03:00am 13.9 11.4 13.6 98 0.2 SSE 19 28 10 15 1020.0 1017.1 0.2
06/02:42am 13.9 11.7 13.4 97 0.3 SE 17 26 9 14 1020.2 1017.3 0.2
06/02:30am 13.9 11.8 13.7 99 0.1 SE 17 24 9 13 1020.3 1017.4 0.2
06/02:12am 14.0 12.4 13.8 99 0.1 SE 15 22 8 12 1020.4 1017.5 0.2
06/02:00am 14.0 11.9 13.7 98 0.2 SSE 17 22 9 12 1020.4 1017.5 0.2
06/01:30am 13.4 13.0 12.3 93 0.6 ESE 6 11 3 6 1020.7 1017.9 0.2
06/01:00am 13.5 12.6 12.6 94 0.5 SE 9 13 5 7 1020.9 1018.1 0.2
06/12:30am 13.4 12.4 12.3 93 0.6 SE 9 13 5 7 1021.2 1018.3 0.2
06/12:00am 14.2 11.6 13.1 93 0.6 SE 19 26 10 14 1021.5 1018.6 0.2
 
Date/Time
EDT
Temp
°C
App
Temp
°C
Dew
Point
Rel
Hum
%
Delta-T
°C
Wind Press
QNH
hPa
Press
MSL
hPa
Rain
since 9 am
mm
Dir
 
Spd
km/h
Gust
km/h
Spd
kts
Gust
kts
05/11:30pm 14.2 12.0 13.4 95 0.5 SE 17 24 9 13 1021.5 1018.6 0.2
05/11:00pm 14.1 12.2 13.0 93 0.6 SE 15 22 8 12 1021.5 1018.6 0.2
05/10:30pm 14.2 11.9 13.1 93 0.6 SE 17 26 9 14 1021.7 1018.8 0.2
05/10:00pm 14.5 11.8 13.0 91 0.9 SE 19 24 10 13 1021.5 1018.6 0.2
05/09:30pm 14.6 12.4 13.3 92 0.7 SE 17 28 9 15 1021.6 1018.7 0.2
05/09:00pm 14.9 12.7 13.4 91 0.9 SE 17 24 9 13 1021.4 1018.5 0.2
05/08:30pm 14.7 12.9 13.4 92 0.7 SE 15 22 8 12 1021.1 1018.2 0.2
05/08:00pm 15.2 12.4 12.7 85 1.4 SE 19 26 10 14 1020.7 1017.9 0.2
05/07:30pm 15.4 12.3 12.3 82 1.8 SE 20 28 11 15 1020.6 1017.8 0.2
05/07:00pm 16.1 13.1 12.5 79 2.0 SE 20 33 11 18 1020.4 1017.5 0.2
05/06:30pm 16.1 12.9 11.9 76 2.4 ESE 20 32 11 17 1020.2 1017.3 0.2
05/06:00pm 16.3 12.2 11.5 73 2.7 SE 24 35 13 19 1020.2 1017.3 0.2
05/05:30pm 17.4 12.4 10.8 65 3.7 SE 28 41 15 22 1020.1 1017.2 0.2
05/05:00pm 16.6 11.8 11.7 73 2.7 SE 28 39 15 21 1020.2 1017.3 0.2
05/04:30pm 18.0 13.1 12.7 71 3.1 SE 30 39 16 21 1020.1 1017.2 0.2
05/04:00pm 17.5 12.4 11.8 69 3.2 SE 30 43 16 23 1020.3 1017.4 0.2
05/03:30pm 18.2 13.5 13.3 73 2.9 SE 30 44 16 24 1020.5 1017.6 0.2
05/03:00pm 16.7 12.0 12.0 74 2.7 ESE 28 41 15 22 1020.5 1017.6 0.2
05/02:30pm 17.7 12.9 11.5 67 3.5 SSE 28 37 15 20 1020.6 1017.8 0.2
05/02:00pm 18.6 13.8 12.8 69 3.4 SE 30 43 16 23 1020.6 1017.8 0.2
05/01:30pm 18.0 13.0 13.9 77 2.4 SE 33 48 18 26 1020.7 1017.9 0.2
05/01:00pm 16.9 11.7 12.8 77 2.4 SE 32 46 17 25 1020.8 1018.0 0.2
05/12:30pm 16.8 11.0 11.5 71 3.0 SSE 33 46 18 25 1021.1 1018.2 0.2
05/12:21pm 17.0 12.0 11.1 68 3.3 SE 28 46 15 25 1020.9 1018.1 0.2
05/12:00pm 17.3 12.9 11.6 69 3.2 SE 26 39 14 21 1021.1 1018.2 0.2
05/11:53am 16.7 11.8 11.4 71 3.0 SE 28 50 15 27 1021.1 1018.2 0.2
05/11:30am 17.1 12.2 11.4 69 3.2 SE 28 41 15 22 1021.1 1018.2 0.2
05/11:08am 16.3 11.9 12.8 80 2.0 SE 28 46 15 25 1021.2 1018.3 0.2
05/11:00am 17.0 13.0 14.1 83 1.7 SE 28 41 15 22 1021.1 1018.2 0.2
05/10:30am 16.1 10.8 13.0 82 1.8 SE 33 44 18 24 1020.9 1018.1 0.2
05/10:00am 15.5 10.7 13.0 85 1.4 SE 30 46 16 25 1020.5 1017.6 0.0
05/09:50am 15.6 10.4 12.9 84 1.5 SE 32 46 17 25 1020.5 1017.6 0.0
05/09:37am 15.6 10.7 13.8 89 1.0 SSE 32 43 17 23 1020.4 1017.5 0.0
05/09:32am 15.3 10.9 14.0 92 0.8 SE 30 43 16 23 1020.4 1017.5 0.0
05/09:30am 14.8 10.0 13.0 89 1.0 SE 30 43 16 23 1020.4 1017.5 0.0
05/09:00am 14.3 9.6 13.3 94 0.6 SE 30 41 16 22 1020.2 1017.3 4.2
05/08:42am 14.1 10.4 13.9 99 0.1 SE 26 39 14 21 1020.0 1017.1 4.2
05/08:30am 13.9 10.5 13.7 99 0.1 SSE 24 33 13 18 1020.0 1017.1 4.2
05/08:20am 13.8 10.0 13.5 98 0.2 SE 26 37 14 20 1019.9 1017.0 4.2
05/08:00am 13.8 9.6 13.5 98 0.2 SE 28 37 15 20 1019.7 1016.8 4.2
05/07:30am 13.4 9.2 13.4 100 0.0 SE 28 39 15 21 1019.2 1016.3 4.2
05/07:17am 13.4 8.8 13.4 100 0.0 SE 30 41 16 22 1019.0 1016.1 4.2
05/07:00am 13.4 10.7 13.4 100 0.0 SSE 20 26 11 14 1018.9 1016.0 4.2
05/06:58am 13.4 10.7 13.4 100 0.0 SSE 20 26 11 14 1018.8 1015.9 4.2
05/06:35am 13.2 9.3 13.2 100 0.0 SE 26 39 14 21 1018.6 1015.7 4.2
05/06:30am 13.3 9.8 13.3 100 0.0 SE 24 39 13 21 1018.7 1015.8 4.2
05/06:15am 13.3 11.1 13.3 100 0.0 SE 17 26 9 14 1018.5 1015.6 4.2
05/06:00am 13.3 10.7 13.3 100 0.0 SSE 19 24 10 13 1018.3 1015.4 4.0
05/05:30am 13.3 10.2 13.3 100 0.0 SE 22 32 12 17 1018.0 1015.0 4.0
05/05:26am 13.3 9.8 13.3 100 0.0 SE 24 39 13 21 1017.9 1014.9 4.0
05/05:00am 13.3 9.4 13.3 100 0.0 SSE 26 41 14 22 1017.7 1014.8 4.0
05/04:39am 13.3 10.2 13.3 100 0.0 SSE 22 33 12 18 1017.5 1014.6 3.8
05/04:35am 13.3 9.8 13.3 100 0.0 SSE 24 33 13 18 1017.5 1014.6 3.8
05/04:30am 13.3 9.8 13.3 100 0.0 SSE 24 35 13 19 1017.4 1014.5 3.8
05/04:13am 13.4 9.9 13.4 100 0.0 SSE 24 33 13 18 1017.3 1014.4 3.6
05/04:00am 13.5 10.4 13.3 99 0.1 SSE 22 32 12 17 1017.4 1014.5 3.6
05/03:42am 13.5 9.2 13.3 99 0.1 SSE 28 41 15 22 1017.4 1014.5 3.6
05/03:30am 13.3 9.7 13.1 99 0.1 SSE 24 32 13 17 1017.6 1014.7 3.6
05/03:15am 13.3 10.5 13.1 99 0.1 S 20 32 11 17 1017.6 1014.7 3.6
05/03:00am 13.4 10.8 13.1 98 0.2 SSE 19 28 10 15 1017.7 1014.8 3.4
05/02:30am 13.4 9.4 13.1 98 0.2 SSE 26 37 14 20 1018.1 1015.2 3.4
05/02:11am 13.4 10.1 12.9 97 0.3 SSE 22 35 12 19 1018.2 1015.3 3.4
05/02:00am 13.5 9.1 13.0 97 0.3 SSE 28 35 15 19 1018.2 1015.3 3.4
05/01:59am 13.5 9.5 13.0 97 0.3 SSE 26 35 14 19 1018.2 1015.3 3.4
05/01:48am 13.6 10.1 13.3 98 0.2 SSE 24 37 13 20 1018.2 1015.3 3.4
05/01:32am 13.6 10.8 13.3 98 0.2 SSE 20 28 11 15 1018.1 1015.2 3.4
05/01:30am 13.6 10.8 13.3 98 0.2 SSE 20 28 11 15 1018.2 1015.3 3.4
05/01:13am 13.5 10.7 13.3 99 0.1 SSE 20 33 11 18 1018.4 1015.5 3.4
05/01:00am 13.4 10.6 13.2 99 0.1 SSE 20 30 11 16 1018.5 1015.6 3.4
05/12:56am 13.4 10.2 13.1 98 0.2 SSE 22 32 12 17 1018.5 1015.6 3.4
05/12:30am 13.4 10.1 12.9 97 0.3 S 22 33 12 18 1018.6 1015.7 3.2
05/12:17am 13.3 10.4 12.8 97 0.3 SSE 20 28 11 15 1018.7 1015.8 3.2
05/12:16am 13.3 10.6 12.8 97 0.3 SSE 19 28 10 15 1018.8 1015.9 3.2
05/12:00am 13.5 10.3 13.2 98 0.2 S 22 41 12 22 1018.9 1016.0 3.2
 
Date/Time
EDT
Temp
°C
App
Temp
°C
Dew
Point
Rel
Hum
%
Delta-T
°C
Wind Press
QNH
hPa
Press
MSL
hPa
Rain
since 9 am
mm
Dir
 
Spd
km/h
Gust
km/h
Spd
kts
Gust
kts
04/11:30pm 13.5 9.5 13.0 97 0.3 S 26 41 14 22 1018.9 1016.0 3.2
04/11:08pm 13.5 10.0 13.3 99 0.1 S 24 35 13 19 1018.8 1015.9 3.2
04/11:07pm 13.5 10.4 13.3 99 0.1 S 22 35 12 19 1018.8 1015.9 3.2
04/11:00pm 13.4 10.3 13.4 100 0.0 S 22 33 12 18 1018.8 1015.9 3.2
04/10:56pm 13.4 9.9 13.4 100 0.0 SSE 24 37 13 20 1018.9 1016.0 3.2
04/10:50pm 13.5 10.0 13.5 100 0.0 SSE 24 37 13 20 1018.9 1016.0 3.2
04/10:45pm 13.5 10.4 13.5 100 0.0 SSE 22 35 12 19 1018.8 1015.9 3.2
04/10:41pm 13.4 10.3 13.4 100 0.0 SSE 22 33 12 18 1018.9 1016.0 3.2
04/10:30pm 13.5 10.8 13.5 100 0.0 SSE 20 33 11 18 1019.0 1016.1 3.2
04/10:00pm 13.8 9.9 13.2 96 0.3 SSE 26 37 14 20 1018.7 1015.8 2.4
04/09:51pm 14.1 8.9 12.8 92 0.7 SSE 32 44 17 24 1018.6 1015.7 2.4
04/09:30pm 14.2 10.7 12.2 88 1.1 SSE 22 32 12 17 1018.5 1015.6 2.4
04/09:00pm 14.1 9.2 11.4 84 1.5 SSE 28 41 15 22 1018.2 1015.3 2.4
04/08:46pm 14.4 8.9 11.7 84 1.5 SSE 32 54 17 29 1018.1 1015.2 2.4
04/08:30pm 14.5 9.3 11.5 82 1.7 SSE 30 46 16 25 1018.0 1015.0 2.4
04/08:03pm 14.7 9.9 11.8 83 1.6 S 28 46 15 25 1017.7 1014.8 2.4
04/08:00pm 14.7 9.6 11.8 83 1.6 SSE 30 46 16 25 1017.7 1014.8 2.4
04/07:39pm 14.9 9.2 11.3 79 2.0 S 32 52 17 28 1017.5 1014.6 2.4
04/07:30pm 15.0 10.1 11.4 79 2.0 SSE 28 44 15 24 1017.5 1014.6 2.4
04/07:00pm 15.6 10.0 12.0 79 2.0 SSE 33 54 18 29 1017.1 1014.2 2.4
04/06:30pm 15.3 9.3 12.2 82 1.7 SSE 35 54 19 29 1016.8 1013.9 2.4
04/06:29pm 15.3 9.7 12.2 82 1.7 SSE 33 54 18 29 1016.8 1013.9 2.4
04/06:00pm 15.6 9.7 12.5 82 1.8 SSE 35 46 19 25 1016.4 1013.4 2.4
04/05:49pm 16.5 11.4 13.0 80 2.0 SSE 32 50 17 27 1016.3 1013.3 2.4
04/05:30pm 16.1 9.9 12.5 79 2.0 SSE 37 54 20 29 1016.4 1013.4 2.4
04/05:10pm 16.1 9.9 12.7 80 1.9 SSE 37 56 20 30 1016.1 1013.2 2.4
04/05:00pm 16.2 11.4 14.0 87 1.3 SSE 32 43 17 23 1016.3 1013.3 2.4
04/04:30pm 15.9 11.4 13.7 87 1.3 SSE 30 44 16 24 1016.3 1013.3 2.4
04/04:00pm 15.7 11.5 13.5 87 1.3 SSE 28 41 15 22 1016.1 1013.2 2.4
04/03:51pm 15.4 10.6 14.1 92 0.8 SSE 32 43 17 23 1016.1 1013.2 2.4
04/03:30pm 15.1 11.2 14.5 96 0.4 SSE 28 39 15 21 1016.3 1013.3 2.4
04/03:27pm 15.2 11.6 14.2 94 0.6 SSE 26 39 14 21 1016.1 1013.2 2.4
04/03:12pm 15.6 11.3 14.3 92 0.8 SSE 30 44 16 24 1016.1 1013.2 2.4
04/03:00pm 15.5 12.0 14.5 94 0.6 SSE 26 35 14 19 1016.3 1013.3 2.4
04/02:57pm 15.6 12.2 14.8 95 0.5 SSE 26 41 14 22 1016.4 1013.4 2.4
04/02:38pm 15.7 11.7 15.2 97 0.3 SSE 30 43 16 23 1016.3 1013.3 2.4
04/02:30pm 15.2 10.4 14.1 93 0.6 SSE 32 43 17 23 1016.3 1013.3 2.4
04/02:27pm 15.6 11.5 14.8 95 0.5 S 30 41 16 22 1016.3 1013.3 2.4
04/02:15pm 16.5 13.4 16.5 100 0.0 S 28 39 15 21 1016.0 1013.1 2.4
04/02:03pm 15.0 11.9 14.4 96 0.4 S 24 39 13 21 1016.3 1013.3 2.4
04/02:00pm 15.2 11.8 14.7 97 0.3 S 26 33 14 18 1016.3 1013.3 2.2
04/01:55pm 15.5 11.7 14.7 95 0.5 SSE 28 43 15 23 1016.3 1013.3 2.2
04/01:33pm 15.6 11.1 14.8 95 0.5 SSE 32 46 17 25 1016.3 1013.3 2.2
04/01:30pm 15.4 10.9 14.8 96 0.4 SSE 32 46 17 25 1016.3 1013.3 2.2
04/01:28pm 15.2 10.5 14.4 95 0.5 SSE 32 46 17 25 1016.3 1013.3 2.2
04/01:00pm 14.9 10.7 14.6 98 0.2 SSE 30 44 16 24 1016.4 1013.4 2.2
04/12:55pm 15.0 12.0 14.8 99 0.1 SSE 24 39 13 21 1016.4 1013.4 2.2
04/12:48pm 15.0 11.6 14.8 99 0.1 SSE 26 39 14 21 1016.4 1013.4 2.2
04/12:35pm 14.8 11.3 14.6 99 0.1 SSE 26 37 14 20 1016.5 1013.5 2.2
04/12:34pm 14.8 11.3 14.6 99 0.1 SSE 26 37 14 20 1016.6 1013.6 2.2
04/12:30pm 14.6 10.7 14.4 99 0.1 SSE 28 43 15 23 1016.6 1013.6 2.2
04/12:00pm 14.8 10.3 14.8 100 0.0 S 32 44 17 24 1016.5 1013.5 2.2
04/11:30am 14.6 10.8 14.6 100 0.0 S 28 44 15 24 1016.3 1013.3 2.0
04/11:00am 14.9 11.2 14.9 100 0.0 S 28 41 15 22 1016.0 1013.1 1.4
04/10:39am 14.9 11.2 14.9 100 0.0 S 28 46 15 25 1015.8 1012.9 1.2
04/10:30am 14.5 10.2 14.5 100 0.0 S 30 46 16 25 1015.7 1012.8 1.0
04/10:00am 14.5 11.4 14.5 100 0.0 SSE 24 37 13 20 1015.7 1012.8 0.8
04/09:30am 14.4 10.9 14.4 100 0.0 SSE 26 41 14 22 1015.6 1012.7 0.4
04/09:00am 14.3 10.4 14.3 100 0.0 S 28 44 15 24 1015.3 1012.3 19.6
04/08:30am 14.3 9.6 14.3 100 0.0 S 32 43 17 23 1015.0 1012.0 19.4
04/08:00am 14.3 9.6 14.3 100 0.0 S 32 44 17 24 1014.5 1011.6 19.4
04/07:30am 14.1 10.5 14.1 100 0.0 S 26 37 14 20 1014.4 1011.5 19.4
04/07:00am 13.8 11.2 13.8 100 0.0 S 20 32 11 17 1014.2 1011.3 19.0
04/06:30am 13.8 11.2 13.8 100 0.0 S 20 28 11 15 1013.8 1010.8 18.4
04/06:00am 14.0 10.7 14.0 100 0.0 S 24 33 13 18 1013.4 1010.4 18.2
04/05:30am 14.0 11.5 14.0 100 0.0 SSE 20 30 11 16 1012.9 1010.0 17.6
04/05:17am 13.9 10.2 13.9 100 0.0 SSE 26 44 14 24 1012.6 1009.6 17.6
04/05:16am 13.9 10.2 13.9 100 0.0 SSE 26 44 14 24 1012.6 1009.6 17.6
04/05:00am 13.8 10.4 13.8 100 0.0 S 24 35 13 19 1012.5 1009.5 17.6
04/04:30am 13.9 10.6 13.9 100 0.0 S 24 37 13 20 1012.3 1009.3 17.2
04/04:00am 14.9 11.9 14.9 100 0.0 S 24 32 13 17 1011.9 1008.9 15.8
04/03:30am 15.1 11.8 15.1 100 0.0 SSE 26 39 14 21 1011.6 1008.6 13.0
04/03:00am 15.5 13.1 15.5 100 0.0 SSE 22 33 12 18 1011.3 1008.3 10.4
04/02:35am 15.7 13.0 15.7 100 0.0 SSE 24 35 13 19 1011.4 1008.5 9.4
04/02:34am 15.7 13.0 15.7 100 0.0 SSE 24 35 13 19 1011.4 1008.5 9.4
04/02:30am 15.7 13.0 15.7 100 0.0 SSE 24 33 13 18 1011.4 1008.5 9.4
04/02:12am 15.8 12.4 15.8 100 0.0 SSE 28 39 15 21 1011.4 1008.5 9.4
04/02:01am 15.8 12.8 15.8 100 0.0 SSE 26 35 14 19 1011.4 1008.5 9.2
04/02:00am 15.8 12.8 15.8 100 0.0 SSE 26 35 14 19 1011.6 1008.6 9.2
04/01:30am 15.5 13.5 15.5 100 0.0 SSE 20 26 11 14 1011.7 1008.7 8.8
04/01:25am 15.5 13.5 15.5 100 0.0 SSE 20 26 11 14 1011.6 1008.6 8.6
04/01:20am 15.4 13.0 15.4 100 0.0 SE 22 30 12 16 1011.7 1008.7 8.6
04/01:09am 15.3 13.2 15.3 100 0.0 SSE 20 33 11 18 1011.7 1008.7 8.2
04/01:05am 15.4 13.4 15.4 100 0.0 SSE 20 33 11 18 1011.9 1008.9 8.0
04/01:00am 15.4 13.0 15.4 100 0.0 SSE 22 32 12 17 1011.9 1008.9 7.8
04/12:47am 15.4 13.4 15.4 100 0.0 SSE 20 28 11 15 1011.8 1008.8 7.2
04/12:45am 15.4 13.4 15.4 100 0.0 SSE 20 28 11 15 1011.8 1008.8 7.0
04/12:36am 15.3 13.2 15.3 100 0.0 SSE 20 30 11 16 1011.8 1008.8 6.8
04/12:30am 15.3 13.2 15.3 100 0.0 SSE 20 30 11 16 1011.8 1008.8 6.8
04/12:18am 15.4 13.6 15.4 100 0.0 SSE 19 26 10 14 1011.8 1008.8 6.6
04/12:06am 15.5 13.5 15.5 100 0.0 S 20 28 11 15 1011.9 1008.9 6.2
04/12:04am 15.6 13.6 15.6 100 0.0 S 20 28 11 15 1011.9 1008.9 6.0
04/12:00am 15.6 13.3 15.6 100 0.0 SSE 22 28 12 15 1011.9 1008.9 5.8
 
Date/Time
EDT
Temp
°C
App
Temp
°C
Dew
Point
Rel
Hum
%
Delta-T
°C
Wind Press
QNH
hPa
Press
MSL
hPa
Rain
since 9 am
mm
Dir
 
Spd
km/h
Gust
km/h
Spd
kts
Gust
kts
03/11:37pm 16.0 14.2 16.0 100 0.0 S 20 28 11 15 1011.8 1008.8 3.0
03/11:30pm 16.0 14.2 16.0 100 0.0 S 20 26 11 14 1011.8 1008.8 2.6
03/11:26pm 16.1 14.0 16.1 100 0.0 SSE 22 33 12 18 1011.7 1008.7 2.4
03/11:00pm 16.3 13.9 16.3 100 0.0 SSE 24 33 13 18 1011.4 1008.5 1.8
03/10:30pm 16.3 14.2 16.3 100 0.0 SSE 22 33 12 18 1011.3 1008.3 0.8
03/10:19pm 16.3 14.2 16.3 100 0.0 SSE 22 30 12 16 1011.3 1008.3 0.2
03/10:00pm 16.3 14.2 16.3 100 0.0 SSE 22 33 12 18 1011.0 1008.0 0.0
03/09:45pm 16.4 14.4 16.4 100 0.0 SSE 22 37 12 20 1010.9 1007.9 0.0
03/09:30pm 16.5 12.9 16.3 99 0.1 SSE 30 44 16 24 1010.6 1007.6 0.0
03/09:13pm 16.8 14.1 16.6 99 0.1 S 26 39 14 21 1010.4 1007.4 0.0
03/09:00pm 17.1 14.5 16.8 98 0.2 SSE 26 37 14 20 1010.2 1007.2 0.0
03/08:30pm 17.8 15.5 16.7 93 0.7 SSE 24 35 13 19 1010.0 1006.9 0.0
03/08:21pm 17.9 15.2 16.6 92 0.8 SSE 26 39 14 21 1010.0 1006.9 0.0
03/08:00pm 18.1 16.2 16.6 91 0.9 SE 22 32 12 17 1009.4 1006.4 0.0
03/07:30pm 18.3 15.5 15.4 83 1.8 SE 24 32 13 17 1008.9 1005.9 0.0
03/07:00pm 18.5 16.3 14.8 79 2.2 SSE 20 37 11 20 1008.3 1005.3 0.0
03/06:30pm 18.9 14.1 14.0 73 2.9 SSE 32 46 17 25 1007.6 1004.6 0.0
03/06:00pm 20.5 16.7 14.8 70 3.5 SSE 28 39 15 21 1006.7 1003.7 0.0
03/05:30pm 21.8 18.1 15.9 69 3.7 SE 30 39 16 21 1006.2 1003.2 0.0
03/05:00pm 23.5 19.8 15.0 59 5.2 SE 28 41 15 22 1006.0 1002.9 0.0
03/04:30pm 23.4 20.4 14.9 59 5.2 SSE 24 35 13 19 1005.6 1002.5 0.0
03/04:00pm 25.1 22.9 14.9 53 6.3 SE 20 28 11 15 1005.1 1002.1 0.0
03/03:30pm 26.0 24.0 13.8 47 7.4 ESE 17 22 9 12 1005.0 1002.0 0.0
03/03:00pm 26.9 24.7 14.3 46 7.8 SE 19 24 10 13 1005.1 1002.1 0.0
03/02:30pm 26.4 25.0 13.5 45 7.8 SE 13 19 7 10 1005.3 1002.2 0.0
03/02:00pm 27.2 25.2 12.8 41 8.7 SSW 15 24 8 13 1005.1 1002.1 0.0
03/01:30pm 26.6 25.8 13.0 43 8.2 SSW 9 19 5 10 1005.4 1002.3 0.0
03/01:00pm 26.5 24.8 12.5 41 8.4 WSW 13 20 7 11 1005.5 1002.4 0.0
03/12:30pm 25.6 24.1 13.1 46 7.5 W 13 22 7 12 1005.8 1002.7 0.0
03/12:00pm 25.5 24.9 14.6 51 6.7 WNW 11 17 6 9 1005.8 1002.7 0.0
03/11:30am 24.5 23.1 12.1 46 7.3 WNW 11 15 6 8 1006.1 1003.0 0.0
03/11:00am 24.1 23.3 13.9 53 6.2 W 11 19 6 10 1006.3 1003.3 0.0
03/10:30am 23.6 22.4 14.0 55 5.8 WNW 13 19 7 10 1006.3 1003.3 0.0
03/10:00am 22.8 23.2 15.4 63 4.6 NNW 7 11 4 6 1006.3 1003.3 0.0
03/09:30am 21.4 20.7 15.3 68 3.7 NNW 13 17 7 9 1006.3 1003.3 0.0

Other Formats:

Comma delimited format used in spreadsheet applications
http://www.bom.gov.au/fwo/IDN60801/IDN60801.94746.axf

JavaScript Object Notation format (JSON) in row-major order
http://www.bom.gov.au/fwo/IDN60801/IDN60801.94746.json